Time;durP1;ratioP1;P1;durP2;ratioP2;P2;SDS_P1;SDS_P2;PMS_P1;PMS_P2;Temp;Humidity;BMP_temperature;BMP_pressure;BME280_temperature;BME280_humidity;BME280_pressure;Samples;Min_cycle;Max_cycle;Signal;HPM_P1;HPM_P2
2022/01/15 00:02:26;;;;;;;31.95;5.38;;;;;;;3.16;100.00;103109.00;10174331;28;20056;-71
2022/01/15 00:07:22;;;;;;;33.78;6.93;;;;;;;3.24;100.00;103107.94;10183753;28;20625;-68
2022/01/15 00:12:19;;;;;;;27.13;4.88;;;;;;;3.21;100.00;103108.34;10191365;28;20123;-70
2022/01/15 00:17:21;;;;;;;28.25;4.97;;;;;;;3.15;100.00;103116.25;10182042;28;20050;-68
2022/01/15 00:22:19;;;;;;;33.47;5.72;;;;;;;3.24;100.00;103111.47;10182780;28;20050;-69
2022/01/15 00:27:15;;;;;;;37.70;5.68;;;;;;;3.12;100.00;103105.84;10184419;28;20066;-70
2022/01/15 00:32:12;;;;;;;35.55;6.18;;;;;;;3.17;100.00;103103.34;10183247;28;20041;-70
2022/01/15 00:37:08;;;;;;;39.25;5.88;;;;;;;3.14;100.00;103101.06;10185766;28;20182;-69
2022/01/15 00:42:08;;;;;;;37.03;5.53;;;;;;;3.08;100.00;103104.59;10183334;28;20164;-69
2022/01/15 00:47:04;;;;;;;26.38;5.03;;;;;;;3.10;100.00;103097.13;10189066;28;20541;-70
2022/01/15 00:52:01;;;;;;;33.90;5.03;;;;;;;3.12;100.00;103097.75;10189946;28;20037;-69
2022/01/15 00:56:57;;;;;;;23.90;4.60;;;;;;;3.16;100.00;103096.28;10186138;28;20050;-69
2022/01/15 01:01:53;;;;;;;26.92;3.80;;;;;;;3.13;100.00;103104.84;10187218;28;20105;-69
2022/01/15 01:06:50;;;;;;;42.30;5.80;;;;;;;3.33;100.00;103098.56;10194023;28;20417;-70
2022/01/15 01:11:54;;;;;;;30.95;4.55;;;;;;;3.31;100.00;103087.13;10179125;28;20101;-70
2022/01/15 01:27:27;;;;;;;33.33;4.18;;;;;;;3.41;100.00;103065.88;10145237;28;20125;-70
2022/01/15 01:32:37;;;;;;;37.15;6.53;;;;;;;3.52;100.00;103067.09;10164340;28;20068;-70
2022/01/15 01:37:39;;;;;;;25.92;4.72;;;;;;;3.50;100.00;103063.75;10176114;28;20057;-69
2022/01/15 01:42:42;;;;;;;23.53;4.20;;;;;;;3.62;100.00;103045.00;10180304;28;20137;-72
2022/01/15 01:47:43;;;;;;;33.00;3.90;;;;;;;3.62;100.00;103058.53;10187245;28;21231;-70
2022/01/15 01:52:41;;;;;;;28.95;4.43;;;;;;;3.69;100.00;103056.63;10182064;28;20068;-70
2022/01/15 01:57:37;;;;;;;31.10;5.10;;;;;;;3.73;100.00;103047.03;10189345;28;20060;-70
2022/01/15 02:02:35;;;;;;;30.30;4.93;;;;;;;3.66;100.00;103055.19;10186688;28;20132;-70
2022/01/15 02:07:32;;;;;;;33.80;6.53;;;;;;;3.70;100.00;103056.41;10185639;28;20060;-70
2022/01/15 02:12:29;;;;;;;34.78;5.13;;;;;;;3.71;100.00;103051.84;10187730;28;20390;-71
2022/01/15 02:17:26;;;;;;;28.73;4.43;;;;;;;3.85;100.00;103056.13;10183721;28;20065;-70
2022/01/15 02:27:38;;;;;;;32.30;4.93;;;;;;;3.90;100.00;103037.41;10187017;28;20046;-70
2022/01/15 02:32:37;;;;;;;33.75;5.07;;;;;;;3.94;100.00;103016.13;10181352;28;20087;-69
2022/01/15 02:37:36;;;;;;;33.33;5.03;;;;;;;3.97;100.00;103027.34;10182210;28;20583;-70
2022/01/15 02:42:33;;;;;;;27.20;3.83;;;;;;;4.00;100.00;103015.25;10180775;28;20441;-70
2022/01/15 02:52:44;;;;;;;25.38;4.07;;;;;;;3.91;100.00;103022.81;10182375;28;20502;-69
2022/01/15 02:57:40;;;;;;;25.60;4.55;;;;;;;3.98;100.00;103017.34;10181635;28;20077;-69
2022/01/15 03:02:37;;;;;;;29.88;3.53;;;;;;;3.96;100.00;103004.03;10181988;28;20141;-69
2022/01/15 03:07:34;;;;;;;33.72;5.25;;;;;;;4.02;100.00;103006.94;10181040;28;20099;-68
2022/01/15 03:12:30;;;;;;;29.08;3.67;;;;;;;4.09;100.00;102999.59;10164863;28;20073;-68
2022/01/15 03:17:27;;;;;;;25.23;3.20;;;;;;;4.06;100.00;103002.72;10166472;28;20087;-68
2022/01/15 03:22:23;;;;;;;30.17;3.95;;;;;;;4.11;100.00;103000.22;10172474;28;20498;-68
2022/01/15 03:27:23;;;;;;;32.83;5.05;;;;;;;4.00;100.00;102986.31;10161431;28;20050;-69
2022/01/15 03:32:20;;;;;;;26.73;4.35;;;;;;;4.02;100.00;102991.53;10165465;28;20043;-69
2022/01/15 03:37:17;;;;;;;37.75;5.28;;;;;;;4.05;100.00;102990.25;10175204;28;20422;-68
2022/01/15 03:42:13;;;;;;;36.03;4.13;;;;;;;3.91;100.00;102979.50;10184709;28;20062;-68
2022/01/15 03:47:11;;;;;;;23.45;3.17;;;;;;;3.89;100.00;102976.19;10169946;28;20128;-69
2022/01/15 03:52:10;;;;;;;38.63;5.13;;;;;;;3.94;100.00;102979.06;10171838;28;20563;-69
2022/01/15 03:57:06;;;;;;;32.55;4.18;;;;;;;3.91;100.00;102974.09;10168005;28;20073;-69
2022/01/15 04:02:03;;;;;;;30.55;3.88;;;;;;;3.86;100.00;102971.22;10158759;28;20595;-68
2022/01/15 04:07:00;;;;;;;26.73;3.75;;;;;;;3.89;100.00;102978.88;10175668;28;20046;-68
2022/01/15 04:11:57;;;;;;;34.47;5.07;;;;;;;3.83;100.00;102970.81;10181738;28;20054;-68
2022/01/15 04:16:53;;;;;;;24.60;3.80;;;;;;;3.96;100.00;102973.44;10178882;28;20130;-68
2022/01/15 04:21:50;;;;;;;36.95;5.03;;;;;;;3.69;100.00;102949.25;10174063;28;20109;-67
2022/01/15 04:26:48;;;;;;;31.23;4.00;;;;;;;3.68;100.00;102946.75;10187177;28;20046;-67
2022/01/15 04:31:48;;;;;;;27.27;3.78;;;;;;;3.58;100.00;102944.53;10190902;28;20096;-68
2022/01/15 04:36:46;;;;;;;26.73;4.10;;;;;;;3.46;100.00;102947.06;10178259;28;20046;-69
2022/01/15 04:41:42;;;;;;;27.35;4.50;;;;;;;3.53;100.00;102950.56;10180766;28;20061;-68
2022/01/15 04:46:41;;;;;;;36.00;4.43;;;;;;;3.54;100.00;102957.63;10184969;28;20081;-67
2022/01/15 04:51:38;;;;;;;23.13;4.78;;;;;;;3.47;100.00;102967.66;10186120;28;20041;-68
2022/01/15 04:56:34;;;;;;;19.17;3.60;;;;;;;3.47;100.00;102967.66;10192763;28;20554;-68
2022/01/15 05:01:30;;;;;;;18.83;3.70;;;;;;;3.51;100.00;102957.25;10189314;28;20115;-68
2022/01/15 05:06:27;;;;;;;33.85;5.00;;;;;;;3.56;100.00;102960.97;10180966;28;20046;-69
2022/01/15 05:11:31;;;;;;;26.20;4.32;;;;;;;3.60;100.00;102961.38;10184060;28;20073;-69
2022/01/15 05:16:27;;;;;;;17.85;3.03;;;;;;;3.64;100.00;102980.69;10179411;28;20175;-69
2022/01/15 05:21:24;;;;;;;20.77;3.90;;;;;;;3.64;100.00;102967.97;10184101;28;20042;-69
2022/01/15 05:26:20;;;;;;;28.40;3.90;;;;;;;3.65;100.00;102963.44;10181507;28;20564;-69
2022/01/15 05:31:17;;;;;;;24.80;3.05;;;;;;;3.66;100.00;102965.06;10181490;28;20106;-69
2022/01/15 05:36:13;;;;;;;24.98;3.30;;;;;;;3.73;100.00;102957.75;10190672;28;20502;-69
2022/01/15 05:41:10;;;;;;;25.42;3.40;;;;;;;3.74;100.00;102957.53;10186357;28;20559;-69
2022/01/15 05:46:06;;;;;;;25.80;3.80;;;;;;;3.80;100.00;102945.00;10180775;28;20042;-68
2022/01/15 05:51:03;;;;;;;22.80;3.78;;;;;;;3.73;100.00;102949.63;10189964;28;20053;-70
2022/01/15 05:55:59;;;;;;;25.30;3.95;;;;;;;3.72;100.00;102945.28;10193733;28;20097;-70
2022/01/15 06:00:56;;;;;;;19.40;3.88;;;;;;;3.75;100.00;102936.72;10187267;28;20046;-69
2022/01/15 06:05:52;;;;;;;22.17;3.58;;;;;;;3.83;100.00;102950.00;10180231;28;20101;-68
2022/01/15 06:10:49;;;;;;;25.30;4.47;;;;;;;3.80;100.00;102945.00;10184905;28;20120;-70
2022/01/15 06:15:45;;;;;;;20.73;4.57;;;;;;;3.85;100.00;102953.28;10187278;28;20081;-70
2022/01/15 06:20:42;;;;;;;20.50;3.80;;;;;;;3.87;100.00;102945.78;10186989;28;20072;-70
2022/01/15 06:25:38;;;;;;;18.40;5.65;;;;;;;3.98;100.00;102953.22;10184421;28;20076;-69
2022/01/15 06:30:35;;;;;;;21.20;3.67;;;;;;;3.90;100.00;102956.19;10185131;28;20042;-70
2022/01/15 06:35:31;;;;;;;24.77;5.15;;;;;;;3.88;100.00;102957.47;10178539;28;20075;-70
2022/01/15 06:40:28;;;;;;;19.35;4.25;;;;;;;3.88;100.00;102950.16;10177082;28;21595;-70
2022/01/15 06:45:25;;;;;;;16.77;3.40;;;;;;;3.91;100.00;102952.44;10189720;28;20058;-68
2022/01/15 06:50:23;;;;;;;19.13;3.70;;;;;;;3.89;100.00;102938.28;10184782;28;20054;-68
2022/01/15 06:55:20;;;;;;;23.92;4.85;;;;;;;3.87;100.00;102945.78;10187174;28;20077;-69
2022/01/15 07:00:17;;;;;;;24.02;4.63;;;;;;;3.92;100.00;102951.41;10187405;28;20111;-70
2022/01/15 07:05:14;;;;;;;27.10;5.30;;;;;;;4.00;100.00;102945.72;10186421;28;20042;-70
2022/01/15 07:10:11;;;;;;;19.00;5.10;;;;;;;3.95;100.00;102948.25;10186152;28;20077;-70
2022/01/15 07:15:08;;;;;;;25.33;4.50;;;;;;;4.02;100.00;102959.03;10178595;28;20761;-68
2022/01/15 07:20:05;;;;;;;27.25;5.20;;;;;;;3.88;100.00;102944.75;10171154;28;20078;-71
2022/01/15 07:25:02;;;;;;;22.48;5.57;;;;;;;3.89;100.00;102959.94;10160999;28;20049;-69
2022/01/15 07:29:59;;;;;;;20.30;3.72;;;;;;;3.89;100.00;102949.09;10164903;28;20049;-72
2022/01/15 07:34:55;;;;;;;21.48;4.85;;;;;;;3.97;100.00;102954.28;10163117;28;20454;-68
2022/01/15 07:39:53;;;;;;;18.38;5.38;;;;;;;3.98;100.00;102945.09;10167970;28;20058;-69
2022/01/15 07:44:49;;;;;;;15.02;4.93;;;;;;;3.86;100.00;102941.44;10165423;28;20107;-69
2022/01/15 07:49:46;;;;;;;19.50;6.40;;;;;;;3.92;100.00;102947.84;10165856;28;20078;-69
2022/01/15 07:54:42;;;;;;;17.85;6.30;;;;;;;3.95;100.00;102956.38;10168744;28;20046;-67
2022/01/15 07:59:39;;;;;;;19.25;5.55;;;;;;;3.93;100.00;102944.94;10168275;28;20046;-70
2022/01/15 08:04:35;;;;;;;15.90;6.03;;;;;;;4.05;100.00;102936.94;10182952;28;20069;-70
2022/01/15 08:09:32;;;;;;;22.30;6.35;;;;;;;4.14;100.00;102937.50;10175774;28;20048;-70
2022/01/15 08:14:29;;;;;;;20.33;6.75;;;;;;;4.16;100.00;102933.50;10183367;28;20496;-69
2022/01/15 08:19:25;;;;;;;19.02;5.85;;;;;;;4.09;100.00;102931.91;10183402;28;20600;-69
2022/01/15 08:24:22;;;;;;;21.38;7.60;;;;;;;4.13;100.00;102933.13;10203030;28;20072;-68
2022/01/15 08:29:19;;;;;;;22.15;7.55;;;;;;;4.08;100.00;102931.06;10217832;28;20464;-68
2022/01/15 08:34:15;;;;;;;23.73;8.02;;;;;;;4.15;100.00;102931.00;10189164;28;20046;-69
2022/01/15 08:39:12;;;;;;;20.50;6.30;;;;;;;4.13;100.00;102923.13;10183317;28;20571;-70
2022/01/15 08:44:09;;;;;;;18.90;7.38;;;;;;;4.18;100.00;102930.59;10209573;28;20041;-70
2022/01/15 08:49:05;;;;;;;23.17;7.40;;;;;;;4.12;100.00;102939.59;10213126;28;20654;-71
2022/01/15 08:54:02;;;;;;;16.67;6.80;;;;;;;4.09;100.00;102931.91;10178342;28;20084;-71
2022/01/15 08:58:58;;;;;;;23.27;5.93;;;;;;;4.13;100.00;102933.97;10180770;28;20147;-72
2022/01/15 09:03:58;;;;;;;18.33;6.25;;;;;;;4.22;100.00;102923.66;10186336;28;20045;-72
2022/01/15 09:08:55;;;;;;;17.63;5.30;;;;;;;4.28;100.00;102924.69;10221079;28;20050;-72
2022/01/15 09:13:51;;;;;;;17.38;5.43;;;;;;;4.31;100.00;102919.63;10165208;28;20140;-72
2022/01/15 09:18:47;;;;;;;15.73;5.30;;;;;;;4.33;100.00;102917.53;10176240;28;20133;-72
2022/01/15 09:23:45;;;;;;;12.38;5.30;;;;;;;4.41;100.00;102916.44;10172738;28;20704;-72
2022/01/15 09:33:57;;;;;;;17.88;5.28;;;;;;;4.70;100.00;102914.91;10173471;28;20050;-72
2022/01/15 09:38:53;;;;;;;17.05;6.35;;;;;;;4.74;100.00;102913.41;10184446;28;20073;-71
2022/01/15 09:43:50;;;;;;;15.00;5.30;;;;;;;4.63;100.00;102922.25;10188609;28;20110;-70
2022/01/15 09:48:48;;;;;;;16.27;5.05;;;;;;;4.90;100.00;102916.53;10162556;28;20045;-72
2022/01/15 09:53:46;;;;;;;25.05;5.50;;;;;;;4.97;100.00;102911.91;10167687;28;20038;-72
2022/01/15 09:58:43;;;;;;;15.38;5.57;;;;;;;5.02;100.00;102903.91;10170155;28;20093;-71
2022/01/15 10:03:41;;;;;;;16.50;4.97;;;;;;;5.00;100.00;102911.44;10174173;28;20038;-71
2022/01/15 10:08:37;;;;;;;18.10;4.72;;;;;;;5.08;100.00;102916.53;10174467;28;20053;-71
2022/01/15 10:13:43;;;;;;;14.77;4.47;;;;;;;5.05;100.00;102900.75;10177563;28;20065;-73
2022/01/15 10:18:44;;;;;;;13.15;4.65;;;;;;;5.22;100.00;102888.22;10170338;28;20050;-71
2022/01/15 10:23:54;;;;;;;16.73;4.22;;;;;;;5.35;100.00;102883.69;10175095;28;20046;-69
2022/01/15 10:28:56;;;;;;;20.20;4.38;;;;;;;5.41;100.00;102880.06;10170239;28;20042;-67
2022/01/15 10:33:53;;;;;;;19.75;4.75;;;;;;;5.34;100.00;102885.56;10178094;28;20038;-66
2022/01/15 10:38:50;;;;;;;18.95;4.05;;;;;;;5.66;100.00;102882.59;10174485;28;20565;-67
2022/01/15 10:43:47;;;;;;;19.50;4.35;;;;;;;5.61;100.00;102887.91;10184439;28;20064;-62
2022/01/15 10:48:45;;;;;;;19.55;4.55;;;;;;;5.69;100.00;102869.41;10172236;28;20137;-64
2022/01/15 10:53:45;;;;;;;17.08;4.10;;;;;;;5.65;100.00;102870.09;10157510;28;20038;-72
2022/01/15 10:58:45;;;;;;;19.58;3.60;;;;;;;5.70;100.00;102857.47;10177089;28;20050;-71
2022/01/15 11:03:46;;;;;;;16.98;4.32;;;;;;;5.91;100.00;102853.38;10180245;28;20124;-64
2022/01/15 11:08:45;;;;;;;13.82;4.03;;;;;;;6.01;100.00;102847.44;10213193;28;20037;-64
2022/01/15 11:13:47;;;;;;;17.95;3.47;;;;;;;5.93;100.00;102844.19;10172350;28;20474;-64
2022/01/15 11:18:45;;;;;;;18.90;3.35;;;;;;;6.01;100.00;102831.13;10223197;28;20563;-64
2022/01/15 11:23:43;;;;;;;18.83;5.85;;;;;;;6.22;100.00;102815.28;10162799;28;20084;-68
2022/01/15 11:28:42;;;;;;;21.58;6.05;;;;;;;6.46;100.00;102816.09;10163838;28;20050;-68
2022/01/15 11:33:45;;;;;;;19.77;5.38;;;;;;;6.46;100.00;102811.50;10162656;28;20101;-68
2022/01/15 11:38:46;;;;;;;17.42;4.07;;;;;;;6.56;100.00;102810.88;10161156;28;20135;-67
2022/01/15 11:43:43;;;;;;;22.90;4.97;;;;;;;6.57;100.00;102806.25;10168379;28;20070;-68
2022/01/15 11:48:39;;;;;;;16.48;4.43;;;;;;;6.73;100.00;102810.97;10174561;28;20521;-67
2022/01/15 11:53:48;;;;;;;25.17;4.95;;;;;;;6.73;100.00;102795.47;10204179;28;20057;-67
2022/01/15 11:58:46;;;;;;;18.02;4.85;;;;;;;6.81;100.00;102794.28;10191725;28;20066;-68
2022/01/15 12:03:45;;;;;;;24.15;5.18;;;;;;;6.95;100.00;102798.34;10189759;28;20050;-67
2022/01/15 12:08:41;;;;;;;23.25;6.05;;;;;;;7.07;100.00;102792.03;10216120;28;20069;-67
2022/01/15 12:13:43;;;;;;;15.98;5.40;;;;;;;7.10;100.00;102788.81;10185918;28;20116;-66
2022/01/15 12:18:48;;;;;;;17.00;5.07;;;;;;;7.28;100.00;102785.06;10197325;28;20137;-67
2022/01/15 12:23:45;;;;;;;22.40;5.30;;;;;;;7.76;100.00;102789.97;10170130;28;20225;-68
2022/01/15 12:28:41;;;;;;;16.52;3.92;;;;;;;8.17;100.00;102782.44;10174490;28;20081;-66
2022/01/15 12:33:39;;;;;;;20.85;3.83;;;;;;;8.47;100.00;102781.22;10175887;28;20105;-63
2022/01/15 12:38:36;;;;;;;19.27;3.10;;;;;;;8.26;100.00;102773.81;10179289;28;20077;-63
2022/01/15 12:43:41;;;;;;;16.15;3.20;;;;;;;7.76;100.00;102768.19;10175203;28;20115;-68
2022/01/15 12:48:40;;;;;;;17.90;3.20;;;;;;;7.18;100.00;102769.41;10178627;28;20054;-71
2022/01/15 12:53:39;;;;;;;20.13;4.72;;;;;;;7.07;100.00;102773.00;10185401;28;20057;-66
2022/01/15 12:58:36;;;;;;;21.65;4.15;;;;;;;6.93;100.00;102762.41;10189023;28;20466;-65
2022/01/15 13:03:36;;;;;;;22.05;4.05;;;;;;;6.90;100.00;102760.19;10208944;28;20045;-66
2022/01/15 13:08:36;;;;;;;16.52;3.60;;;;;;;6.97;100.00;102756.50;10203808;28;20104;-66
2022/01/15 13:13:38;;;;;;;26.75;4.55;;;;;;;6.97;100.00;102751.88;10197402;28;20057;-65
2022/01/15 13:18:37;;;;;;;22.25;4.50;;;;;;;7.04;100.00;102757.19;10185123;28;20069;-66
2022/01/15 13:23:41;;;;;;;26.70;6.00;;;;;;;7.08;100.00;102747.47;10166578;28;20081;-68
2022/01/15 13:28:40;;;;;;;19.50;3.50;;;;;;;7.10;100.00;102745.31;10170903;28;20091;-66
2022/01/15 13:33:40;;;;;;;22.73;4.00;;;;;;;7.13;100.00;102728.50;10168963;28;20133;-66
2022/01/15 13:38:39;;;;;;;16.45;4.03;;;;;;;7.12;100.00;102732.28;10168308;28;20086;-65
2022/01/15 13:43:35;;;;;;;23.30;5.70;;;;;;;7.04;100.00;102724.53;10165234;28;20079;-66
2022/01/15 13:48:32;;;;;;;22.10;4.50;;;;;;;6.88;100.00;102707.94;10173709;28;20080;-66
2022/01/15 13:53:36;;;;;;;22.08;4.30;;;;;;;6.78;100.00;102694.16;10179027;28;20519;-66
2022/01/15 13:58:32;;;;;;;23.77;4.60;;;;;;;6.70;100.00;102697.25;10174711;28;20091;-68
2022/01/15 14:03:29;;;;;;;20.08;4.30;;;;;;;6.69;100.00;102690.19;10188143;28;20084;-67
2022/01/15 14:08:26;;;;;;;20.45;4.57;;;;;;;6.66;100.00;102679.78;10176183;28;20073;-66
2022/01/15 14:13:27;;;;;;;23.02;4.00;;;;;;;6.53;100.00;102679.00;10181471;28;20077;-66
2022/01/15 14:18:30;;;;;;;16.95;3.55;;;;;;;6.49;100.00;102668.88;10181586;28;20097;-66
2022/01/15 14:23:33;;;;;;;;;;;;;;;6.39;100.00;102669.50;10173728;28;20096;-65
2022/01/15 14:28:30;;;;;;;19.95;4.78;;;;;;;6.50;100.00;102673.25;10188851;28;19920;-66
2022/01/15 14:33:26;;;;;;;25.20;6.15;;;;;;;6.41;100.00;102672.81;10215893;28;20062;-65
2022/01/15 14:38:23;;;;;;;22.23;4.50;;;;;;;6.49;100.00;102671.59;10197192;28;20042;-66
2022/01/15 14:43:22;;;;;;;19.55;5.25;;;;;;;6.49;100.00;102675.13;10176462;28;20460;-66
2022/01/15 14:48:19;;;;;;;15.65;4.60;;;;;;;6.37;100.00;102666.19;10174212;28;20054;-65
2022/01/15 14:53:16;;;;;;;17.60;4.72;;;;;;;6.39;100.00;102664.06;10174056;28;20088;-66
2022/01/15 14:58:12;;;;;;;18.38;4.47;;;;;;;6.36;100.00;102648.25;10187400;28;20042;-67
2022/01/15 15:03:09;;;;;;;22.05;4.43;;;;;;;6.16;100.00;102647.84;10158825;28;20056;-68
2022/01/15 15:08:06;;;;;;;24.98;5.32;;;;;;;6.19;100.00;102644.63;10171033;28;20041;-68
2022/01/15 15:13:04;;;;;;;22.77;4.40;;;;;;;6.13;100.00;102632.88;10222501;28;20078;-68
2022/01/15 15:18:01;;;;;;;22.02;4.53;;;;;;;6.03;100.00;102616.34;10184952;28;20526;-67
2022/01/15 15:22:57;;;;;;;21.45;4.28;;;;;;;6.02;100.00;102615.53;10160868;28;20130;-68
2022/01/15 15:27:55;;;;;;;22.83;4.10;;;;;;;5.96;100.00;102613.75;10162716;28;20054;-67
2022/01/15 15:32:51;;;;;;;26.50;5.95;;;;;;;5.96;100.00;102612.94;10165074;28;20069;-67
2022/01/15 15:37:51;;;;;;;18.80;5.18;;;;;;;5.77;100.00;102610.34;10162907;28;20046;-67
2022/01/15 15:42:48;;;;;;;19.48;5.35;;;;;;;5.73;100.00;102616.50;10171178;28;20046;-67
2022/01/15 15:47:45;;;;;;;25.83;4.93;;;;;;;5.69;100.00;102622.41;10206695;28;20062;-68
2022/01/15 15:52:41;;;;;;;19.98;4.30;;;;;;;5.60;100.00;102628.44;10176469;28;20077;-65
2022/01/15 15:57:39;;;;;;;18.23;4.47;;;;;;;5.78;100.00;102619.31;10184472;28;20069;-66
2022/01/15 16:02:35;;;;;;;20.00;4.25;;;;;;;5.72;100.00;102617.56;10163916;28;20069;-67
2022/01/15 16:07:32;;;;;;;16.73;4.50;;;;;;;5.55;100.00;102626.44;10184502;28;20412;-66
2022/01/15 16:12:29;;;;;;;11.93;3.70;;;;;;;5.57;100.00;102618.03;10194818;28;20070;-67
2022/01/15 16:17:27;;;;;;;16.25;6.18;;;;;;;5.57;100.00;102618.91;10187688;28;20483;-66
2022/01/15 16:22:24;;;;;;;19.77;6.63;;;;;;;5.64;100.00;102625.03;10176100;28;20116;-63
2022/01/15 16:27:21;;;;;;;15.27;4.90;;;;;;;5.57;100.00;102624.31;10190088;28;20046;-69
2022/01/15 16:32:18;;;;;;;21.42;5.57;;;;;;;5.57;100.00;102613.47;10192712;28;20056;-67
2022/01/15 16:37:15;;;;;;;16.23;6.05;;;;;;;5.62;100.00;102610.03;10200073;28;20477;-66
2022/01/15 16:42:13;;;;;;;13.88;4.88;;;;;;;5.57;100.00;102615.34;10193158;28;20517;-67
2022/01/15 16:47:10;;;;;;;15.45;5.15;;;;;;;5.62;100.00;102610.88;10213535;28;20042;-66
2022/01/15 16:52:07;;;;;;;20.55;4.80;;;;;;;5.61;100.00;102603.75;10209207;28;20073;-66
2022/01/15 16:57:04;;;;;;;24.58;5.93;;;;;;;5.62;100.00;102601.91;10222114;28;20091;-67
2022/01/15 17:02:01;;;;;;;16.25;5.75;;;;;;;5.63;100.00;102596.22;10212667;28;20049;-67
2022/01/15 17:06:58;;;;;;;24.05;6.07;;;;;;;5.56;100.00;102584.66;10207596;28;20045;-67
2022/01/15 17:11:54;;;;;;;17.92;4.95;;;;;;;5.50;100.00;102591.06;10181666;28;20050;-71
2022/01/15 17:16:53;;;;;;;22.15;8.55;;;;;;;5.60;100.00;102585.84;10184921;28;20562;-71
2022/01/15 17:21:49;;;;;;;11.40;5.28;;;;;;;5.58;100.00;102568.97;10172616;28;20045;-71
2022/01/15 17:26:46;;;;;;;17.58;5.70;;;;;;;5.60;100.00;102558.72;10213745;28;20114;-70
2022/01/15 17:31:43;;;;;;;18.98;4.63;;;;;;;5.54;100.00;102551.50;10195932;28;20760;-70
2022/01/15 17:36:40;;;;;;;25.30;6.22;;;;;;;5.52;100.00;102553.63;10189253;28;20547;-72
2022/01/15 17:41:36;;;;;;;20.67;5.15;;;;;;;5.50;100.00;102558.50;10200115;28;20506;-71
2022/01/15 17:46:33;;;;;;;17.25;5.25;;;;;;;5.44;100.00;102554.03;10166555;28;20112;-72
2022/01/15 17:51:29;;;;;;;19.25;5.63;;;;;;;5.47;100.00;102553.53;10172099;28;20045;-71
2022/01/15 17:56:26;;;;;;;17.83;5.30;;;;;;;5.55;100.00;102549.66;10170957;28;20056;-71
2022/01/15 18:01:23;;;;;;;19.45;5.50;;;;;;;5.52;100.00;102537.34;10173778;28;20099;-66
2022/01/15 18:06:19;;;;;;;19.67;5.97;;;;;;;5.62;100.00;102545.72;10177441;28;20043;-70
2022/01/15 18:11:18;;;;;;;24.15;6.28;;;;;;;5.57;100.00;102545.63;10171323;28;20146;-68
2022/01/15 18:16:14;;;;;;;19.38;6.55;;;;;;;5.60;100.00;102537.00;10189847;28;20038;-69
2022/01/15 18:21:11;;;;;;;19.88;6.28;;;;;;;5.75;100.00;102528.34;10166141;28;20050;-68
2022/01/15 18:26:08;;;;;;;17.65;6.78;;;;;;;5.87;100.00;102534.56;10168716;28;20030;-68
2022/01/15 18:31:04;;;;;;;20.17;6.30;;;;;;;5.85;100.00;102533.16;10163371;28;20101;-71
2022/01/15 18:36:01;;;;;;;20.95;7.03;;;;;;;5.77;100.00;102530.81;10201139;28;20053;-70
2022/01/15 18:40:57;;;;;;;20.33;5.95;;;;;;;5.78;100.00;102521.59;10179630;28;20076;-70
2022/01/15 18:45:54;;;;;;;22.58;6.45;;;;;;;5.80;100.00;102511.31;10215423;28;20061;-70
2022/01/15 18:50:54;;;;;;;19.42;5.95;;;;;;;5.79;100.00;102523.25;10202841;28;20045;-70
2022/01/15 18:55:50;;;;;;;20.45;5.43;;;;;;;5.69;100.00;102541.00;10169589;28;20093;-70
2022/01/15 19:00:47;;;;;;;27.15;7.10;;;;;;;5.70;100.00;102549.94;10170469;28;20133;-70
2022/01/15 19:05:44;;;;;;;19.02;6.13;;;;;;;5.72;100.00;102609.44;10165325;28;20038;-70
2022/01/15 19:10:40;;;;;;;23.08;5.65;;;;;;;5.80;100.00;102601.75;10186080;28;20523;-67
2022/01/15 19:15:37;;;;;;;20.52;6.90;;;;;;;5.82;100.00;102528.19;10158231;28;20108;-68
2022/01/15 19:20:34;;;;;;;22.27;7.55;;;;;;;5.74;100.00;102483.28;10141230;28;20077;-68
2022/01/15 19:25:32;;;;;;;24.33;7.18;;;;;;;5.61;100.00;102459.13;10197213;28;20050;-69
2022/01/15 19:30:31;;;;;;;25.05;6.65;;;;;;;5.62;100.00;102401.09;10197972;28;20100;-69
2022/01/15 19:35:28;;;;;;;22.75;6.10;;;;;;;5.49;100.00;102432.03;10194830;28;20499;-70
2022/01/15 19:40:25;;;;;;;26.55;8.07;;;;;;;5.51;100.00;102437.22;10197105;28;20073;-69
2022/01/15 19:45:21;;;;;;;28.50;9.68;;;;;;;5.59;100.00;102478.38;10225668;28;20189;-69
2022/01/15 19:50:20;;;;;;;25.52;10.15;;;;;;;5.54;100.00;102440.28;10196162;28;20090;-69
2022/01/15 19:55:25;;;;;;;25.83;9.63;;;;;;;5.49;100.00;102427.44;10206163;28;20041;-69
2022/01/15 20:00:25;;;;;;;24.70;9.38;;;;;;;5.51;100.00;102424.47;10158894;28;20097;-69
2022/01/15 20:05:22;;;;;;;17.85;8.23;;;;;;;5.41;100.00;102418.88;10202636;28;20509;-69
2022/01/15 20:10:21;;;;;;;19.20;8.93;;;;;;;5.35;100.00;102419.81;10182095;28;20203;-69
2022/01/15 20:15:19;;;;;;;31.73;8.88;;;;;;;5.38;100.00;102408.47;10217017;28;20057;-69
2022/01/15 20:20:16;;;;;;;25.17;9.23;;;;;;;5.37;100.00;102375.13;10231918;28;20071;-70
2022/01/15 20:25:13;;;;;;;27.33;9.25;;;;;;;5.42;100.00;102432.19;10201605;28;20658;-70
2022/01/15 20:30:11;;;;;;;26.73;9.25;;;;;;;5.45;100.00;102425.44;10218457;28;20490;-70
2022/01/15 20:35:09;;;;;;;28.50;10.55;;;;;;;5.40;100.00;102395.50;10211904;28;20045;-70
2022/01/15 20:40:07;;;;;;;27.00;9.63;;;;;;;5.41;100.00;102419.69;10218523;28;20054;-70
2022/01/15 20:45:07;;;;;;;28.35;10.18;;;;;;;5.40;100.00;102423.44;10191953;28;20096;-70
2022/01/15 20:50:05;;;;;;;19.38;8.95;;;;;;;5.35;100.00;102400.84;10207589;28;20054;-69
2022/01/15 20:55:02;;;;;;;25.20;10.70;;;;;;;5.19;100.00;102399.72;10200916;28;20046;-69
2022/01/15 20:59:58;;;;;;;19.20;8.90;;;;;;;5.26;100.00;102374.09;10207719;28;20108;-70
2022/01/15 21:04:56;;;;;;;20.75;10.30;;;;;;;5.15;100.00;102366.00;10185334;28;20334;-69
2022/01/15 21:09:52;;;;;;;22.25;8.85;;;;;;;5.22;100.00;102356.66;10220899;28;20090;-70
2022/01/15 21:14:49;;;;;;;21.00;9.40;;;;;;;5.21;100.00;102355.00;10187088;28;20076;-69
2022/01/15 21:19:47;;;;;;;25.55;9.93;;;;;;;5.12;100.00;102356.44;10225259;28;20530;-70
2022/01/15 21:24:43;;;;;;;18.67;9.80;;;;;;;5.07;100.00;102364.50;10198517;28;20042;-70
2022/01/15 21:30:02;;;;;;;23.60;9.73;;;;;;;4.90;100.00;102352.75;10225163;28;20041;-69
2022/01/15 21:34:59;;;;;;;23.63;10.93;;;;;;;5.05;100.00;102350.34;10189920;28;20053;-70
2022/01/15 21:39:55;;;;;;;27.02;11.10;;;;;;;5.01;100.00;102338.34;10216887;28;20049;-69
2022/01/15 21:44:52;;;;;;;28.13;11.20;;;;;;;4.91;100.00;102355.22;10204515;28;20045;-69
2022/01/15 21:49:48;;;;;;;23.70;11.05;;;;;;;4.91;100.00;102344.38;10200970;28;20055;-69
2022/01/15 21:54:46;;;;;;;28.25;11.75;;;;;;;4.98;100.00;102327.97;10221215;28;20100;-70
2022/01/15 21:59:43;;;;;;;27.67;12.57;;;;;;;5.06;100.00;102330.31;10199979;28;20046;-69
2022/01/15 22:04:40;;;;;;;28.02;14.15;;;;;;;5.16;100.00;102324.28;10189217;28;20041;-69
2022/01/15 22:09:40;;;;;;;25.08;13.65;;;;;;;5.04;100.00;102322.41;10209863;28;20074;-67
2022/01/15 22:14:37;;;;;;;25.52;13.52;;;;;;;5.07;100.00;102313.78;10180052;28;20580;-66
2022/01/15 22:19:33;;;;;;;25.13;12.75;;;;;;;4.92;100.00;102323.50;10206483;28;20073;-67
2022/01/15 22:24:30;;;;;;;24.40;13.85;;;;;;;4.71;100.00;102331.25;10191399;28;20049;-66
2022/01/15 22:29:27;;;;;;;22.80;13.57;;;;;;;4.67;100.00;102315.72;10183060;28;20078;-67
2022/01/15 22:34:24;;;;;;;27.20;14.95;;;;;;;4.66;100.00;102303.19;10176971;28;20054;-67
2022/01/15 22:39:20;;;;;;;25.80;14.73;;;;;;;4.60;100.00;102291.44;10162546;28;20410;-67
2022/01/15 22:44:17;;;;;;;26.15;14.50;;;;;;;4.53;100.00;102288.06;10164450;28;20114;-68
2022/01/15 22:49:14;;;;;;;27.08;15.23;;;;;;;4.48;100.00;102290.63;10165992;28;20073;-68
2022/01/15 22:54:10;;;;;;;26.88;16.00;;;;;;;4.49;100.00;102278.75;10170181;28;20057;-67
2022/01/15 22:59:07;;;;;;;24.38;15.65;;;;;;;4.46;100.00;102261.09;10171661;28;20041;-67